»·PEaware :: ACA691 KSFO-KSAN

ACA691 :: KSFO-KSAN

FLIGHT INFORMATION

Flight Status: Arrived
Operator:
Air Canada
More flights by this operator :: More flights under this callsign
Pilot: Thomas N. (7419)
Aircraft: AIRBUS A330-200
(A332)
More flights by this aircraft type
Origin: KSFO San Francisco Intl
United States
Destination: KSAN San Diego Intl-Lindbergh
United States
More flights between these airports :: More routes between these airports
Route: +OFFSH9 MCKEY LAX BAYVU4
File this flight plan on PilotEdge
Remarks:
Altitude:
(Current/Filed)
29,000ft
Speed:
(Current/Filed)
450kts
Departed: 03-Dec-15 05:07 PM
Arrived: 03-Dec-15 06:19 PM
Distance/Time
Traveled:
388nm/1:12
Distance/Time
To Go:
Arrived

Flight Plot

Page will automatically refresh every two minutes.


Map Options




Map Legend


Flown Route
Filed Route
Departure Airport
Arrival Airport
Navaid (VOR, NDB)
Fix

Horizontal Profiles

Position Reports

Time Latitude Longitude Heading Altitude Ground
Speed
03-Dec-15 16:26 37.618581 -122.391629 209 26ft 0kts
03-Dec-15 16:27 37.618581 -122.391629 209 26ft 0kts
03-Dec-15 16:28 37.618581 -122.391629 209 26ft 0kts
03-Dec-15 16:29 37.618581 -122.391629 209 26ft 0kts
03-Dec-15 16:30 37.618581 -122.391629 209 26ft 0kts
03-Dec-15 16:31 37.618581 -122.391629 209 26ft 0kts
03-Dec-15 16:32 37.618581 -122.391629 209 26ft 0kts
03-Dec-15 16:33 37.618581 -122.391629 209 26ft 0kts
03-Dec-15 16:34 37.618581 -122.391629 209 26ft 0kts
03-Dec-15 16:35 37.618581 -122.391629 209 26ft 0kts
03-Dec-15 16:36 37.618581 -122.391629 209 26ft 0kts
03-Dec-15 16:37 37.618581 -122.391629 209 26ft 0kts
03-Dec-15 16:38 37.618581 -122.391629 209 26ft 0kts
03-Dec-15 16:39 37.618581 -122.391629 209 26ft 0kts
03-Dec-15 16:40 37.618581 -122.391629 209 26ft 0kts
03-Dec-15 16:41 37.618581 -122.391629 209 26ft 0kts
03-Dec-15 16:42 37.618581 -122.391629 209 26ft 0kts
03-Dec-15 16:43 37.618581 -122.391629 209 26ft 0kts
03-Dec-15 16:44 37.618581 -122.391629 209 26ft 0kts
03-Dec-15 16:45 37.618581 -122.391629 209 26ft 0kts
03-Dec-15 16:46 37.618581 -122.391629 209 26ft 0kts
03-Dec-15 16:47 37.618581 -122.391629 209 26ft 0kts
03-Dec-15 16:48 37.618581 -122.391629 209 26ft 0kts
03-Dec-15 16:49 37.618677 -122.391578 210 26ft 0kts
03-Dec-15 16:50 37.618938 -122.390984 306 26ft 0kts
03-Dec-15 16:51 37.618937 -122.390986 306 26ft 0kts
03-Dec-15 16:52 37.618937 -122.390986 306 26ft 0kts
03-Dec-15 16:53 37.619127 -122.391313 305 26ft 9kts
03-Dec-15 16:54 37.621272 -122.391708 28 26ft 18kts
03-Dec-15 16:55 37.621115 -122.385538 118 26ft 24kts
03-Dec-15 16:56 37.618887 -122.380245 118 26ft 21kts
03-Dec-15 16:57 37.618063 -122.378052 111 26ft 0kts
03-Dec-15 16:58 37.617261 -122.375403 111 26ft 19kts
03-Dec-15 16:59 37.615487 -122.371085 117 26ft 16kts
03-Dec-15 17:00 37.613549 -122.367528 121 26ft 8kts
03-Dec-15 17:01 37.611606 -122.362870 118 26ft 17kts
03-Dec-15 17:02 37.610651 -122.359488 57 26ft 0kts
03-Dec-15 17:03 37.610905 -122.359197 34 26ft 4kts
03-Dec-15 17:04 37.621462 -122.381556 298 187ft 181kts
03-Dec-15 17:05 37.650484 -122.447409 298 3162ft 232kts
03-Dec-15 17:06 37.670458 -122.535968 241 4995ft 275kts
03-Dec-15 17:07 37.608286 -122.586768 214 6670ft 272kts
03-Dec-15 17:08 37.545803 -122.644051 217 9701ft 285kts
03-Dec-15 17:09 37.474292 -122.707851 197 12191ft 360kts
03-Dec-15 17:10 37.374091 -122.695081 167 17096ft 384kts
03-Dec-15 17:11 37.267260 -122.663600 166 20717ft 426kts
03-Dec-15 17:12 37.148737 -122.626176 160 23534ft 441kts
03-Dec-15 17:13 37.026254 -122.588614 168 25542ft 461kts
03-Dec-15 17:14 36.899198 -122.555532 168 27544ft 476kts
03-Dec-15 17:15 36.767967 -122.521524 168 28982ft 487kts
03-Dec-15 17:16 36.636127 -122.487464 168 29001ft 486kts
03-Dec-15 17:17 36.503676 -122.453176 168 29001ft 486kts
03-Dec-15 17:18 36.388211 -122.378557 132 28999ft 486kts
03-Dec-15 17:19 36.299292 -122.252384 130 29001ft 486kts
03-Dec-15 17:20 36.211782 -122.125178 130 29001ft 486kts
03-Dec-15 17:21 36.123890 -121.997792 130 29001ft 486kts
03-Dec-15 17:22 36.036194 -121.870864 130 29001ft 486kts
03-Dec-15 17:23 35.948465 -121.744072 130 29001ft 486kts
03-Dec-15 17:24 35.860310 -121.617720 130 29001ft 486kts
03-Dec-15 17:25 35.772201 -121.491916 130 29001ft 486kts
03-Dec-15 17:26 35.683799 -121.366161 130 29001ft 486kts
03-Dec-15 17:27 35.595049 -121.240376 130 29001ft 486kts
03-Dec-15 17:28 35.506520 -121.115364 130 29001ft 486kts
03-Dec-15 17:29 35.427381 -120.981389 124 29002ft 486kts
03-Dec-15 17:30 35.350616 -120.845368 124 29001ft 486kts
03-Dec-15 17:31 35.273645 -120.709744 125 29001ft 486kts
03-Dec-15 17:32 35.196119 -120.573915 125 29001ft 486kts
03-Dec-15 17:33 35.118716 -120.438834 125 29005ft 486kts
03-Dec-15 17:34 35.041132 -120.303955 125 29004ft 486kts
03-Dec-15 17:35 34.963285 -120.169132 125 28497ft 482kts
03-Dec-15 17:36 34.886546 -120.036731 125 27525ft 475kts
03-Dec-15 17:37 34.810630 -119.906236 125 26549ft 468kts
03-Dec-15 17:38 34.736456 -119.778294 125 25578ft 462kts
03-Dec-15 17:39 34.674664 -119.672761 125 24762ft 456kts
03-Dec-15 17:40 34.601710 -119.548617 125 24005ft 450kts
03-Dec-15 17:41 34.528761 -119.424912 125 24001ft 451kts
03-Dec-15 17:42 34.458274 -119.305795 125 24001ft 451kts
03-Dec-15 17:43 34.386496 -119.185124 125 24000ft 451kts
03-Dec-15 17:44 34.313281 -119.062247 125 24001ft 451kts
03-Dec-15 17:45 34.239617 -118.939019 125 24001ft 451kts
03-Dec-15 17:46 34.169204 -118.820824 126 24001ft 451kts
03-Dec-15 17:47 34.095494 -118.698202 126 24001ft 451kts
03-Dec-15 17:48 34.021786 -118.576130 126 24000ft 451kts
03-Dec-15 17:49 33.948304 -118.454847 126 23170ft 445kts
03-Dec-15 17:50 33.868561 -118.349263 133 22230ft 439kts
03-Dec-15 17:51 33.786386 -118.244750 133 21262ft 433kts
03-Dec-15 17:52 33.705267 -118.140913 133 20288ft 427kts
03-Dec-15 17:53 33.624814 -118.038196 133 19307ft 421kts
03-Dec-15 17:54 33.545144 -117.936773 133 18321ft 414kts
03-Dec-15 17:55 33.468857 -117.839260 133 17082ft 407kts
03-Dec-15 17:56 33.392361 -117.742879 133 15623ft 398kts
03-Dec-15 17:57 33.316610 -117.647529 133 15006ft 395kts
03-Dec-15 17:58 33.237188 -117.556840 143 15001ft 395kts
03-Dec-15 17:59 33.148904 -117.478428 145 15000ft 395kts
03-Dec-15 18:00 33.057752 -117.405551 146 14995ft 395kts
03-Dec-15 18:01 32.967307 -117.333357 146 12433ft 384kts
03-Dec-15 18:02 32.883882 -117.266898 145 8961ft 339kts
03-Dec-15 18:03 32.815933 -117.207805 122 6906ft 287kts
03-Dec-15 18:04 32.791784 -117.117141 104 6857ft 301kts
03-Dec-15 18:05 32.732037 -117.067401 194 4992ft 302kts
03-Dec-15 18:06 32.660256 -117.074555 146 4900ft 228kts
03-Dec-15 18:07 32.639605 -117.005945 101 4865ft 225kts
03-Dec-15 18:08 32.625939 -116.933305 102 4929ft 226kts
03-Dec-15 18:09 32.629805 -116.863174 39 4909ft 227kts
03-Dec-15 18:10 32.676154 -116.894026 300 4642ft 229kts
03-Dec-15 18:11 32.694898 -116.963820 271 3521ft 222kts
03-Dec-15 18:12 32.696581 -117.033234 285 3176ft 194kts
03-Dec-15 18:13 32.708180 -117.085625 284 1703ft 181kts
03-Dec-15 18:14 32.720324 -117.133784 286 1003ft 146kts
03-Dec-15 18:15 32.730433 -117.176276 284 108ft 119kts
03-Dec-15 18:16 32.735262 -117.197667 257 30ft 16kts
03-Dec-15 18:17 32.733964 -117.200219 255 30ft 2kts

Navigation Log

Ident Type
Flight plan parsing failed, navigation log unavailable